sensor_id;sensor_type;location;lat;lon;timestamp;pressure;altitude;pressure_sealevel;temperature;humidity
60874;BME280;46715;40.642;-7.920;2023-02-19T00:01:15;97126.59;;;13.38;50.53
60874;BME280;46715;40.642;-7.920;2023-02-19T00:03:16;97123.19;;;13.37;50.11
60874;BME280;46715;40.642;-7.920;2023-02-19T00:05:18;97120.28;;;13.28;50.82
60874;BME280;46715;40.642;-7.920;2023-02-19T00:07:19;97115.31;;;13.32;50.19
60874;BME280;46715;40.642;-7.920;2023-02-19T00:09:20;97116.88;;;13.33;50.36
60874;BME280;46715;40.642;-7.920;2023-02-19T00:11:24;97119.50;;;13.28;50.54
60874;BME280;46715;40.642;-7.920;2023-02-19T00:13:26;97116.88;;;13.18;50.46
60874;BME280;46715;40.642;-7.920;2023-02-19T00:15:26;97122.91;;;13.18;50.77
60874;BME280;46715;40.642;-7.920;2023-02-19T00:17:30;97113.47;;;12.96;51.32
60874;BME280;46715;40.642;-7.920;2023-02-19T00:19:30;97115.03;;;13.03;51.27
60874;BME280;46715;40.642;-7.920;2023-02-19T00:21:32;97115.03;;;12.87;52.09
60874;BME280;46715;40.642;-7.920;2023-02-19T00:23:32;97118.16;;;12.74;52.24
60874;BME280;46715;40.642;-7.920;2023-02-19T00:25:36;97117.59;;;12.61;52.81
60874;BME280;46715;40.642;-7.920;2023-02-19T00:27:37;97112.38;;;12.56;53.00
60874;BME280;46715;40.642;-7.920;2023-02-19T00:29:38;97114.16;;;12.45;53.38
60874;BME280;46715;40.642;-7.920;2023-02-19T00:31:39;97117.28;;;12.37;53.37
60874;BME280;46715;40.642;-7.920;2023-02-19T00:33:40;97114.41;;;12.49;52.39
60874;BME280;46715;40.642;-7.920;2023-02-19T00:35:41;97102.41;;;12.53;52.15
60874;BME280;46715;40.642;-7.920;2023-02-19T00:37:43;97105.03;;;12.58;52.00
60874;BME280;46715;40.642;-7.920;2023-02-19T00:39:44;97110.81;;;12.66;51.80
60874;BME280;46715;40.642;-7.920;2023-02-19T00:41:46;97105.56;;;12.60;52.08
60874;BME280;46715;40.642;-7.920;2023-02-19T00:43:58;97102.19;;;12.75;51.15
60874;BME280;46715;40.642;-7.920;2023-02-19T00:45:59;97095.13;;;12.81;51.24
60874;BME280;46715;40.642;-7.920;2023-02-19T00:48:00;97103.75;;;12.61;52.02
60874;BME280;46715;40.642;-7.920;2023-02-19T00:50:01;97095.09;;;12.55;52.50
60874;BME280;46715;40.642;-7.920;2023-02-19T00:52:01;97104.75;;;12.55;52.54
60874;BME280;46715;40.642;-7.920;2023-02-19T00:54:03;97100.31;;;12.55;52.60
60874;BME280;46715;40.642;-7.920;2023-02-19T00:56:05;97101.91;;;12.61;52.76
60874;BME280;46715;40.642;-7.920;2023-02-19T00:58:07;97097.72;;;12.55;52.70
60874;BME280;46715;40.642;-7.920;2023-02-19T01:00:08;97099.03;;;12.58;53.15
60874;BME280;46715;40.642;-7.920;2023-02-19T01:02:13;97093.25;;;12.51;53.02
60874;BME280;46715;40.642;-7.920;2023-02-19T01:04:14;97091.44;;;12.56;53.20
60874;BME280;46715;40.642;-7.920;2023-02-19T01:06:16;97093.03;;;12.68;52.96
60874;BME280;46715;40.642;-7.920;2023-02-19T01:08:17;97088.06;;;12.66;52.48
60874;BME280;46715;40.642;-7.920;2023-02-19T01:10:18;97084.38;;;12.62;52.64
60874;BME280;46715;40.642;-7.920;2023-02-19T01:12:19;97085.44;;;12.66;52.12
60874;BME280;46715;40.642;-7.920;2023-02-19T01:14:20;97082.53;;;12.62;52.61
60874;BME280;46715;40.642;-7.920;2023-02-19T01:16:21;97072.34;;;12.61;52.45
60874;BME280;46715;40.642;-7.920;2023-02-19T01:18:26;97078.66;;;12.70;52.00
60874;BME280;46715;40.642;-7.920;2023-02-19T01:20:27;97072.88;;;12.68;51.48
60874;BME280;46715;40.642;-7.920;2023-02-19T01:22:28;97078.09;;;12.63;51.36
60874;BME280;46715;40.642;-7.920;2023-02-19T01:24:29;97068.44;;;12.64;51.91
60874;BME280;46715;40.642;-7.920;2023-02-19T01:26:31;97070.00;;;12.75;51.23
60874;BME280;46715;40.642;-7.920;2023-02-19T01:28:33;97067.38;;;12.70;50.82
60874;BME280;46715;40.642;-7.920;2023-02-19T01:30:35;97058.72;;;12.64;50.98
60874;BME280;46715;40.642;-7.920;2023-02-19T01:32:36;97065.03;;;12.68;50.75
60874;BME280;46715;40.642;-7.920;2023-02-19T01:34:37;97051.94;;;12.68;50.72
60874;BME280;46715;40.642;-7.920;2023-02-19T01:36:38;97054.31;;;12.65;50.47
60874;BME280;46715;40.642;-7.920;2023-02-19T01:38:42;97058.22;;;12.67;50.03
60874;BME280;46715;40.642;-7.920;2023-02-19T01:40:43;97050.91;;;12.69;50.31
60874;BME280;46715;40.642;-7.920;2023-02-19T01:42:44;97048.53;;;12.68;50.11
60874;BME280;46715;40.642;-7.920;2023-02-19T01:46:46;97052.72;;;12.64;50.22
60874;BME280;46715;40.642;-7.920;2023-02-19T01:48:49;97051.94;;;12.63;49.98
60874;BME280;46715;40.642;-7.920;2023-02-19T01:50:54;97046.44;;;12.59;50.41
60874;BME280;46715;40.642;-7.920;2023-02-19T01:52:58;97044.59;;;12.60;49.68
60874;BME280;46715;40.642;-7.920;2023-02-19T01:55:06;97041.22;;;12.59;49.73
60874;BME280;46715;40.642;-7.920;2023-02-19T01:57:18;97027.09;;;12.60;49.95
60874;BME280;46715;40.642;-7.920;2023-02-19T01:59:21;97037.28;;;12.72;49.49
60874;BME280;46715;40.642;-7.920;2023-02-19T02:01:22;97033.63;;;12.78;49.26
60874;BME280;46715;40.642;-7.920;2023-02-19T02:03:23;97030.22;;;12.78;49.18
60874;BME280;46715;40.642;-7.920;2023-02-19T02:08:07;97023.94;;;12.94;48.81
60874;BME280;46715;40.642;-7.920;2023-02-19T02:10:26;97025.25;;;12.87;49.09
60874;BME280;46715;40.642;-7.920;2023-02-19T02:12:27;97028.13;;;12.80;49.11
60874;BME280;46715;40.642;-7.920;2023-02-19T02:14:31;97028.63;;;12.77;49.50
60874;BME280;46715;40.642;-7.920;2023-02-19T02:19:13;97026.53;;;13.05;48.83
60874;BME280;46715;40.642;-7.920;2023-02-19T02:21:25;97036.75;;;12.96;48.89
60874;BME280;46715;40.642;-7.920;2023-02-19T02:23:50;97031.00;;;12.84;48.85
60874;BME280;46715;40.642;-7.920;2023-02-19T02:33:35;97016.63;;;12.55;49.82
60874;BME280;46715;40.642;-7.920;2023-02-19T02:35:52;97023.66;;;12.60;49.82
60874;BME280;46715;40.642;-7.920;2023-02-19T02:37:59;97026.81;;;12.67;49.36
60874;BME280;46715;40.642;-7.920;2023-02-19T02:40:04;97020.53;;;12.58;49.30
60874;BME280;46715;40.642;-7.920;2023-02-19T02:42:06;97022.09;;;12.54;49.97
60874;BME280;46715;40.642;-7.920;2023-02-19T02:44:35;97025.78;;;12.68;49.58
60874;BME280;46715;40.642;-7.920;2023-02-19T02:46:37;97020.28;;;12.65;49.51
60874;BME280;46715;40.642;-7.920;2023-02-19T02:48:47;97021.56;;;12.67;48.98
60874;BME280;46715;40.642;-7.920;2023-02-19T02:55:50;97004.56;;;12.85;48.79
60874;BME280;46715;40.642;-7.920;2023-02-19T02:57:52;97009.28;;;12.78;48.82
60874;BME280;46715;40.642;-7.920;2023-02-19T02:59:54;97007.72;;;12.67;48.79
60874;BME280;46715;40.642;-7.920;2023-02-19T03:02:24;96999.59;;;12.84;48.08
60874;BME280;46715;40.642;-7.920;2023-02-19T03:07:08;97000.38;;;13.00;47.20
60874;BME280;46715;40.642;-7.920;2023-02-19T03:09:22;96995.13;;;13.20;47.03
60874;BME280;46715;40.642;-7.920;2023-02-19T03:11:31;96996.38;;;13.33;46.37
60874;BME280;46715;40.642;-7.920;2023-02-19T03:13:58;96994.81;;;13.27;46.36
60874;BME280;46715;40.642;-7.920;2023-02-19T03:16:24;96995.09;;;13.25;46.43
60874;BME280;46715;40.642;-7.920;2023-02-19T03:18:49;96985.66;;;13.35;45.96
60874;BME280;46715;40.642;-7.920;2023-02-19T03:21:10;96986.19;;;13.26;45.81
60874;BME280;46715;40.642;-7.920;2023-02-19T03:23:15;96982.78;;;13.46;45.74
60874;BME280;46715;40.642;-7.920;2023-02-19T03:25:30;96979.88;;;13.48;45.32
60874;BME280;46715;40.642;-7.920;2023-02-19T03:27:59;96977.28;;;13.43;45.62
60874;BME280;46715;40.642;-7.920;2023-02-19T03:30:08;96975.69;;;13.37;45.67
60874;BME280;46715;40.642;-7.920;2023-02-19T03:32:17;96974.38;;;13.39;45.52
60874;BME280;46715;40.642;-7.920;2023-02-19T03:37:23;96977.56;;;13.26;45.73
60874;BME280;46715;40.642;-7.920;2023-02-19T03:39:25;96976.25;;;13.28;45.75
60874;BME280;46715;40.642;-7.920;2023-02-19T03:46:33;96964.19;;;13.27;45.30
60874;BME280;46715;40.642;-7.920;2023-02-19T03:49:00;96968.38;;;13.23;45.50
60874;BME280;46715;40.642;-7.920;2023-02-19T03:54:16;96966.28;;;13.25;45.12
60874;BME280;46715;40.642;-7.920;2023-02-19T03:56:24;96974.13;;;13.25;45.49
60874;BME280;46715;40.642;-7.920;2023-02-19T03:58:31;96973.63;;;13.13;46.34
60874;BME280;46715;40.642;-7.920;2023-02-19T04:00:41;96970.00;;;12.99;46.96
60874;BME280;46715;40.642;-7.920;2023-02-19T04:03:00;96969.50;;;12.81;46.98
60874;BME280;46715;40.642;-7.920;2023-02-19T04:07:06;96966.38;;;12.74;46.79
60874;BME280;46715;40.642;-7.920;2023-02-19T04:09:13;96968.22;;;12.68;47.37
60874;BME280;46715;40.642;-7.920;2023-02-19T04:11:17;96967.44;;;12.68;47.01
60874;BME280;46715;40.642;-7.920;2023-02-19T04:13:31;96967.16;;;12.64;47.44
60874;BME280;46715;40.642;-7.920;2023-02-19T04:15:36;96970.03;;;12.57;47.08
60874;BME280;46715;40.642;-7.920;2023-02-19T04:17:50;96978.16;;;12.51;47.69
60874;BME280;46715;40.642;-7.920;2023-02-19T04:19:54;96961.66;;;12.50;47.80
60874;BME280;46715;40.642;-7.920;2023-02-19T04:21:57;96972.66;;;12.52;47.69
60874;BME280;46715;40.642;-7.920;2023-02-19T04:24:06;96976.06;;;12.53;47.83
60874;BME280;46715;40.642;-7.920;2023-02-19T04:26:09;96967.69;;;12.51;47.53
60874;BME280;46715;40.642;-7.920;2023-02-19T04:28:13;96965.34;;;12.59;47.71
60874;BME280;46715;40.642;-7.920;2023-02-19T04:30:15;96969.25;;;12.62;47.16
60874;BME280;46715;40.642;-7.920;2023-02-19T04:32:16;96967.44;;;12.68;47.19
60874;BME280;46715;40.642;-7.920;2023-02-19T04:34:17;96975.28;;;12.68;47.29
60874;BME280;46715;40.642;-7.920;2023-02-19T04:36:18;96974.47;;;12.67;46.82
60874;BME280;46715;40.642;-7.920;2023-02-19T04:38:19;96970.03;;;12.73;47.10
60874;BME280;46715;40.642;-7.920;2023-02-19T04:40:20;96974.75;;;12.76;46.78
60874;BME280;46715;40.642;-7.920;2023-02-19T04:42:21;96979.44;;;12.74;47.28
60874;BME280;46715;40.642;-7.920;2023-02-19T04:44:21;96980.00;;;12.76;47.28
60874;BME280;46715;40.642;-7.920;2023-02-19T04:46:22;96989.94;;;12.79;47.10
60874;BME280;46715;40.642;-7.920;2023-02-19T04:48:23;96982.59;;;12.66;47.99
60874;BME280;46715;40.642;-7.920;2023-02-19T04:50:24;96984.41;;;12.55;47.92
60874;BME280;46715;40.642;-7.920;2023-02-19T04:52:25;96978.66;;;12.68;48.23
60874;BME280;46715;40.642;-7.920;2023-02-19T04:54:27;96978.16;;;12.61;48.00
60874;BME280;46715;40.642;-7.920;2023-02-19T04:56:28;96983.91;;;12.63;47.55
60874;BME280;46715;40.642;-7.920;2023-02-19T04:58:30;96985.22;;;12.76;47.96
60874;BME280;46715;40.642;-7.920;2023-02-19T05:00:31;96980.25;;;12.69;47.77
60874;BME280;46715;40.642;-7.920;2023-02-19T05:02:33;96984.72;;;12.69;48.15
60874;BME280;46715;40.642;-7.920;2023-02-19T05:04:34;96978.16;;;12.61;47.97
60874;BME280;46715;40.642;-7.920;2023-02-19T05:06:35;96983.38;;;12.61;48.16
60874;BME280;46715;40.642;-7.920;2023-02-19T05:08:36;96974.22;;;12.53;48.89
60874;BME280;46715;40.642;-7.920;2023-02-19T05:10:37;96989.91;;;12.43;48.74
60874;BME280;46715;40.642;-7.920;2023-02-19T05:12:38;96982.59;;;12.35;49.60
60874;BME280;46715;40.642;-7.920;2023-02-19T05:14:39;96981.28;;;12.32;49.16
60874;BME280;46715;40.642;-7.920;2023-02-19T05:16:39;96980.22;;;12.28;49.30
60874;BME280;46715;40.642;-7.920;2023-02-19T05:18:42;96981.78;;;12.29;50.16
60874;BME280;46715;40.642;-7.920;2023-02-19T05:20:43;96982.59;;;12.24;50.53
60874;BME280;46715;40.642;-7.920;2023-02-19T05:22:44;96978.38;;;12.18;49.92
60874;BME280;46715;40.642;-7.920;2023-02-19T05:24:45;96978.38;;;12.18;50.09
60874;BME280;46715;40.642;-7.920;2023-02-19T05:26:46;96982.56;;;12.19;49.91
60874;BME280;46715;40.642;-7.920;2023-02-19T05:28:50;96977.84;;;12.21;50.03
60874;BME280;46715;40.642;-7.920;2023-02-19T05:30:52;96982.06;;;12.27;50.65
60874;BME280;46715;40.642;-7.920;2023-02-19T05:32:52;96983.34;;;12.25;50.61
60874;BME280;46715;40.642;-7.920;2023-02-19T05:34:53;96981.00;;;12.18;51.51
60874;BME280;46715;40.642;-7.920;2023-02-19T05:36:54;96987.53;;;12.10;51.60
60874;BME280;46715;40.642;-7.920;2023-02-19T05:38:56;96986.72;;;12.00;52.04
60874;BME280;46715;40.642;-7.920;2023-02-19T05:41:05;96978.53;;;11.91;51.70
60874;BME280;46715;40.642;-7.920;2023-02-19T05:43:08;96977.56;;;11.97;50.90
60874;BME280;46715;40.642;-7.920;2023-02-19T05:45:09;96978.59;;;12.01;51.14
60874;BME280;46715;40.642;-7.920;2023-02-19T05:47:10;96978.34;;;12.03;50.83
60874;BME280;46715;40.642;-7.920;2023-02-19T05:49:11;96977.31;;;12.04;50.49
60874;BME280;46715;40.642;-7.920;2023-02-19T05:51:14;96975.75;;;12.08;50.39
60874;BME280;46715;40.642;-7.920;2023-02-19T05:53:15;96971.59;;;12.12;50.85
60874;BME280;46715;40.642;-7.920;2023-02-19T05:55:16;96978.63;;;12.11;50.87
60874;BME280;46715;40.642;-7.920;2023-02-19T05:57:17;96976.53;;;12.08;50.86
60874;BME280;46715;40.642;-7.920;2023-02-19T05:59:22;96977.28;;;11.99;51.14
60874;BME280;46715;40.642;-7.920;2023-02-19T06:01:27;96977.25;;;11.93;50.94
60874;BME280;46715;40.642;-7.920;2023-02-19T06:03:28;96973.56;;;11.89;50.96
60874;BME280;46715;40.642;-7.920;2023-02-19T06:05:28;96984.03;;;11.84;51.44
60874;BME280;46715;40.642;-7.920;2023-02-19T06:07:30;96985.84;;;11.79;51.69
60874;BME280;46715;40.642;-7.920;2023-02-19T06:09:31;96989.19;;;11.74;51.45
60874;BME280;46715;40.642;-7.920;2023-02-19T06:11:33;96989.44;;;11.67;51.82
60874;BME280;46715;40.642;-7.920;2023-02-19T06:13:34;96983.97;;;11.74;51.99
60874;BME280;46715;40.642;-7.920;2023-02-19T06:15:36;96988.69;;;11.72;52.45
60874;BME280;46715;40.642;-7.920;2023-02-19T06:17:37;96986.81;;;11.67;52.29
60874;BME280;46715;40.642;-7.920;2023-02-19T06:19:38;96991.78;;;11.64;52.24
60874;BME280;46715;40.642;-7.920;2023-02-19T06:21:38;96984.97;;;11.63;52.40
60874;BME280;46715;40.642;-7.920;2023-02-19T06:23:40;96984.69;;;11.59;52.97
60874;BME280;46715;40.642;-7.920;2023-02-19T06:25:41;96983.91;;;11.58;52.45
60874;BME280;46715;40.642;-7.920;2023-02-19T06:27:42;96990.19;;;11.57;52.31
60874;BME280;46715;40.642;-7.920;2023-02-19T06:29:42;96983.69;;;11.65;52.16
60874;BME280;46715;40.642;-7.920;2023-02-19T06:31:44;96986.81;;;11.62;52.34
60874;BME280;46715;40.642;-7.920;2023-02-19T06:33:45;96981.31;;;11.58;52.27
60874;BME280;46715;40.642;-7.920;2023-02-19T06:35:46;96970.34;;;11.62;52.38
60874;BME280;46715;40.642;-7.920;2023-02-19T06:37:47;96981.81;;;11.55;51.25
60874;BME280;46715;40.642;-7.920;2023-02-19T06:39:48;96978.75;;;11.69;50.95
60874;BME280;46715;40.642;-7.920;2023-02-19T06:41:50;96984.25;;;11.77;50.61
60874;BME280;46715;40.642;-7.920;2023-02-19T06:43:51;96975.13;;;11.80;50.63
60874;BME280;46715;40.642;-7.920;2023-02-19T06:45:52;96980.09;;;11.82;50.15
60874;BME280;46715;40.642;-7.920;2023-02-19T06:47:53;96973.63;;;11.94;49.88
60874;BME280;46715;40.642;-7.920;2023-02-19T06:49:54;96981.75;;;12.08;49.10
60874;BME280;46715;40.642;-7.920;2023-02-19T06:51:55;96979.16;;;12.14;48.17
60874;BME280;46715;40.642;-7.920;2023-02-19T06:53:56;96984.91;;;12.21;48.14
60874;BME280;46715;40.642;-7.920;2023-02-19T06:56:04;96985.72;;;12.32;48.05
60874;BME280;46715;40.642;-7.920;2023-02-19T06:58:05;96980.75;;;12.40;47.99
60874;BME280;46715;40.642;-7.920;2023-02-19T07:00:08;96977.09;;;12.41;47.75
60874;BME280;46715;40.642;-7.920;2023-02-19T07:02:12;96981.53;;;12.46;47.46
60874;BME280;46715;40.642;-7.920;2023-02-19T07:04:12;96979.47;;;12.48;47.45
60874;BME280;46715;40.642;-7.920;2023-02-19T07:06:13;96972.91;;;12.56;46.85
60874;BME280;46715;40.642;-7.920;2023-02-19T07:08:18;96979.97;;;12.66;47.23
60874;BME280;46715;40.642;-7.920;2023-02-19T07:10:19;96980.50;;;12.62;46.86
60874;BME280;46715;40.642;-7.920;2023-02-19T07:12:20;96984.97;;;12.62;47.31
60874;BME280;46715;40.642;-7.920;2023-02-19T07:14:21;96983.63;;;12.70;47.55
60874;BME280;46715;40.642;-7.920;2023-02-19T07:16:22;96983.13;;;12.68;47.00
60874;BME280;46715;40.642;-7.920;2023-02-19T07:18:23;96995.16;;;12.64;46.83
60874;BME280;46715;40.642;-7.920;2023-02-19T07:20:24;96985.47;;;12.64;46.40
60874;BME280;46715;40.642;-7.920;2023-02-19T07:22:24;96987.31;;;12.69;46.82
60874;BME280;46715;40.642;-7.920;2023-02-19T07:24:26;96995.16;;;12.64;46.83
60874;BME280;46715;40.642;-7.920;2023-02-19T07:26:26;96995.19;;;12.69;46.26
60874;BME280;46715;40.642;-7.920;2023-02-19T07:28:27;96981.28;;;12.63;46.02
60874;BME280;46715;40.642;-7.920;2023-02-19T07:30:28;96982.88;;;12.69;46.68
60874;BME280;46715;40.642;-7.920;2023-02-19T07:32:29;96982.84;;;12.79;46.45
60874;BME280;46715;40.642;-7.920;2023-02-19T07:34:29;96977.34;;;12.86;45.78
60874;BME280;46715;40.642;-7.920;2023-02-19T07:36:30;96985.47;;;12.90;46.15
60874;BME280;46715;40.642;-7.920;2023-02-19T07:38:31;96986.25;;;12.95;46.10
60874;BME280;46715;40.642;-7.920;2023-02-19T07:40:32;96986.78;;;12.87;45.97
60874;BME280;46715;40.642;-7.920;2023-02-19T07:42:34;96993.84;;;13.02;45.80
60874;BME280;46715;40.642;-7.920;2023-02-19T07:44:34;96982.56;;;13.02;45.53
60874;BME280;46715;40.642;-7.920;2023-02-19T07:46:35;96996.97;;;13.04;45.99
60874;BME280;46715;40.642;-7.920;2023-02-19T07:48:37;96996.69;;;13.06;46.34
60874;BME280;46715;40.642;-7.920;2023-02-19T07:50:38;96995.38;;;13.03;46.11
60874;BME280;46715;40.642;-7.920;2023-02-19T07:52:39;96991.50;;;13.01;46.18
60874;BME280;46715;40.642;-7.920;2023-02-19T07:54:40;96994.34;;;13.09;45.69
60874;BME280;46715;40.642;-7.920;2023-02-19T07:56:41;96992.50;;;13.15;45.34
60874;BME280;46715;40.642;-7.920;2023-02-19T07:58:42;96995.88;;;13.26;45.34
60874;BME280;46715;40.642;-7.920;2023-02-19T08:00:43;96994.56;;;13.44;44.60
60874;BME280;46715;40.642;-7.920;2023-02-19T08:02:45;96986.69;;;13.44;44.67
60874;BME280;46715;40.642;-7.920;2023-02-19T08:05:01;96987.41;;;13.60;44.52
60874;BME280;46715;40.642;-7.920;2023-02-19T08:07:02;96985.56;;;13.71;44.78
60874;BME280;46715;40.642;-7.920;2023-02-19T08:09:04;96995.41;;;13.89;44.30
60874;BME280;46715;40.642;-7.920;2023-02-19T08:11:05;96997.25;;;13.89;44.31
60874;BME280;46715;40.642;-7.920;2023-02-19T08:13:27;97005.81;;;14.05;44.09
60874;BME280;46715;40.642;-7.920;2023-02-19T08:15:29;97014.72;;;14.09;44.09
60874;BME280;46715;40.642;-7.920;2023-02-19T08:17:32;97015.44;;;14.25;43.71
60874;BME280;46715;40.642;-7.920;2023-02-19T08:19:32;97010.75;;;14.22;43.99
60874;BME280;46715;40.642;-7.920;2023-02-19T08:21:33;97014.94;;;14.18;44.09
60874;BME280;46715;40.642;-7.920;2023-02-19T08:23:34;97020.97;;;14.18;44.44
60874;BME280;46715;40.642;-7.920;2023-02-19T08:25:37;97024.06;;;14.30;44.36
60874;BME280;46715;40.642;-7.920;2023-02-19T08:27:38;97027.25;;;14.22;44.81
60874;BME280;46715;40.642;-7.920;2023-02-19T08:29:38;97027.78;;;14.19;44.75
60874;BME280;46715;40.642;-7.920;2023-02-19T08:31:39;97029.56;;;14.34;44.62
60874;BME280;46715;40.642;-7.920;2023-02-19T08:33:40;97038.47;;;14.33;44.90
60874;BME280;46715;40.642;-7.920;2023-02-19T08:35:41;97028.84;;;14.18;45.16
60874;BME280;46715;40.642;-7.920;2023-02-19T08:37:42;97029.31;;;14.25;45.13
60874;BME280;46715;40.642;-7.920;2023-02-19T08:39:43;97029.44;;;14.49;44.44
60874;BME280;46715;40.642;-7.920;2023-02-19T08:41:44;97033.59;;;14.56;44.42
60874;BME280;46715;40.642;-7.920;2023-02-19T08:43:44;97036.00;;;14.52;44.51
60874;BME280;46715;40.642;-7.920;2023-02-19T08:45:45;97034.44;;;14.46;44.89
60874;BME280;46715;40.642;-7.920;2023-02-19T08:47:46;97041.00;;;14.48;44.70
60874;BME280;46715;40.642;-7.920;2023-02-19T08:49:47;97035.72;;;14.54;44.79
60874;BME280;46715;40.642;-7.920;2023-02-19T08:51:48;97033.94;;;14.44;44.72
60874;BME280;46715;40.642;-7.920;2023-02-19T08:53:49;97040.25;;;14.43;44.88
60874;BME280;46715;40.642;-7.920;2023-02-19T08:55:50;97036.31;;;14.45;44.58
60874;BME280;46715;40.642;-7.920;2023-02-19T08:57:51;97037.03;;;14.56;44.65
60874;BME280;46715;40.642;-7.920;2023-02-19T08:59:54;97039.94;;;14.49;44.84
60874;BME280;46715;40.642;-7.920;2023-02-19T09:01:59;97043.69;;;14.38;45.31
60874;BME280;46715;40.642;-7.920;2023-02-19T09:03:59;97035.25;;;14.46;45.12
60874;BME280;46715;40.642;-7.920;2023-02-19T09:06:00;97044.97;;;14.41;45.47
60874;BME280;46715;40.642;-7.920;2023-02-19T09:08:01;97032.03;;;14.55;45.37
60874;BME280;46715;40.642;-7.920;2023-02-19T09:10:03;97040.16;;;14.53;44.98
60874;BME280;46715;40.642;-7.920;2023-02-19T09:12:07;97035.63;;;14.69;44.56
60874;BME280;46715;40.642;-7.920;2023-02-19T09:14:09;97022.03;;;14.62;44.68
60874;BME280;46715;40.642;-7.920;2023-02-19T09:16:10;97033.59;;;14.56;44.88
60874;BME280;46715;40.642;-7.920;2023-02-19T09:18:11;97035.63;;;14.69;44.89
60874;BME280;46715;40.642;-7.920;2023-02-19T09:20:12;97036.09;;;14.76;44.90
60874;BME280;46715;40.642;-7.920;2023-02-19T09:22:12;97030.44;;;14.93;44.54
60874;BME280;46715;40.642;-7.920;2023-02-19T09:24:13;97038.69;;;14.81;44.96
60874;BME280;46715;40.642;-7.920;2023-02-19T09:26:14;97038.28;;;14.69;45.63
60874;BME280;46715;40.642;-7.920;2023-02-19T09:28:14;97037.75;;;15.02;45.30
60874;BME280;46715;40.642;-7.920;2023-02-19T09:30:16;97031.78;;;14.91;45.50
60874;BME280;46715;40.642;-7.920;2023-02-19T09:32:17;97038.25;;;15.04;45.50
60874;BME280;46715;40.642;-7.920;2023-02-19T09:34:18;97036.53;;;14.89;46.15
60874;BME280;46715;40.642;-7.920;2023-02-19T09:36:18;97042.72;;;15.03;45.98
60874;BME280;46715;40.642;-7.920;2023-02-19T09:38:19;97032.41;;;15.12;46.04
60874;BME280;46715;40.642;-7.920;2023-02-19T09:40:20;97036.72;;;14.97;47.24
60874;BME280;46715;40.642;-7.920;2023-02-19T09:42:23;97037.47;;;15.03;47.51
60874;BME280;46715;40.642;-7.920;2023-02-19T09:44:34;97026.31;;;15.16;47.13
60874;BME280;46715;40.642;-7.920;2023-02-19T09:46:41;97035.97;;;15.21;47.53
60874;BME280;46715;40.642;-7.920;2023-02-19T09:48:42;97034.25;;;15.11;48.10
60874;BME280;46715;40.642;-7.920;2023-02-19T09:50:46;97033.75;;;15.09;48.93
60874;BME280;46715;40.642;-7.920;2023-02-19T09:52:57;97032.31;;;15.22;48.65
60874;BME280;46715;40.642;-7.920;2023-02-19T09:57:29;97029.91;;;15.26;49.96
60874;BME280;46715;40.642;-7.920;2023-02-19T09:59:40;97036.50;;;15.47;49.98
60874;BME280;46715;40.642;-7.920;2023-02-19T10:01:43;97034.38;;;15.74;49.65
60874;BME280;46715;40.642;-7.920;2023-02-19T10:03:46;97025.13;;;15.81;50.26
60874;BME280;46715;40.642;-7.920;2023-02-19T10:05:47;97044.84;;;16.03;50.43
60874;BME280;46715;40.642;-7.920;2023-02-19T10:07:51;97035.28;;;16.12;50.41
60874;BME280;46715;40.642;-7.920;2023-02-19T10:10:05;97036.56;;;16.15;51.01
60874;BME280;46715;40.642;-7.920;2023-02-19T10:12:26;97035.38;;;15.83;52.88
60874;BME280;46715;40.642;-7.920;2023-02-19T10:14:34;97037.78;;;15.79;53.57
60874;BME280;46715;40.642;-7.920;2023-02-19T10:16:41;97029.69;;;15.71;53.60
60874;BME280;46715;40.642;-7.920;2023-02-19T10:18:44;97031.50;;;15.99;52.91
60874;BME280;46715;40.642;-7.920;2023-02-19T10:20:46;97029.38;;;16.21;53.01
60874;BME280;46715;40.642;-7.920;2023-02-19T10:22:48;97032.59;;;16.17;54.51
60874;BME280;46715;40.642;-7.920;2023-02-19T10:24:51;97042.97;;;16.47;53.53
60874;BME280;46715;40.642;-7.920;2023-02-19T10:26:53;97033.00;;;16.44;54.08
60874;BME280;46715;40.642;-7.920;2023-02-19T10:28:54;97026.53;;;16.55;53.66
60874;BME280;46715;40.642;-7.920;2023-02-19T10:30:57;97024.28;;;16.81;53.02
60874;BME280;46715;40.642;-7.920;2023-02-19T10:33:00;97024.09;;;16.59;53.37
60874;BME280;46715;40.642;-7.920;2023-02-19T10:35:09;97020.25;;;16.70;52.77
60874;BME280;46715;40.642;-7.920;2023-02-19T10:37:13;97022.56;;;16.91;52.28
60874;BME280;46715;40.642;-7.920;2023-02-19T10:41:24;97034.69;;;17.06;53.76
60874;BME280;46715;40.642;-7.920;2023-02-19T10:43:28;97036.06;;;16.70;52.80
60874;BME280;46715;40.642;-7.920;2023-02-19T10:45:39;97022.34;;;16.87;53.55
60874;BME280;46715;40.642;-7.920;2023-02-19T10:47:45;97028.97;;;17.03;53.04
60874;BME280;46715;40.642;-7.920;2023-02-19T10:49:49;97023.44;;;17.33;52.80
60874;BME280;46715;40.642;-7.920;2023-02-19T10:51:51;97020.81;;;17.33;52.38
60874;BME280;46715;40.642;-7.920;2023-02-19T10:54:03;97015.81;;;17.31;52.91
60874;BME280;46715;40.642;-7.920;2023-02-19T10:56:25;97013.19;;;17.73;51.89
60874;BME280;46715;40.642;-7.920;2023-02-19T10:58:26;97021.56;;;18.03;50.89
60874;BME280;46715;40.642;-7.920;2023-02-19T11:00:29;97011.53;;;18.28;50.16
60874;BME280;46715;40.642;-7.920;2023-02-19T11:02:30;97014.03;;;18.47;50.56
60874;BME280;46715;40.642;-7.920;2023-02-19T11:04:32;97017.88;;;18.63;50.61
60874;BME280;46715;40.642;-7.920;2023-02-19T11:06:38;97013.56;;;18.67;50.66
60874;BME280;46715;40.642;-7.920;2023-02-19T11:08:51;97016.47;;;18.43;51.09
60874;BME280;46715;40.642;-7.920;2023-02-19T11:10:53;97012.00;;;18.44;51.30
60874;BME280;46715;40.642;-7.920;2023-02-19T11:12:56;97011.56;;;18.50;51.38
60874;BME280;46715;40.642;-7.920;2023-02-19T11:17:23;97004.47;;;18.37;52.39
60874;BME280;46715;40.642;-7.920;2023-02-19T11:19:37;97011.34;;;18.38;52.32
60874;BME280;46715;40.642;-7.920;2023-02-19T11:21:39;97010.16;;;17.94;54.14
60874;BME280;46715;40.642;-7.920;2023-02-19T11:23:44;97009.88;;;18.32;53.11
60874;BME280;46715;40.642;-7.920;2023-02-19T11:25:47;97012.00;;;18.66;52.10
60874;BME280;46715;40.642;-7.920;2023-02-19T11:32:31;97001.91;;;19.22;50.57
60874;BME280;46715;40.642;-7.920;2023-02-19T11:34:32;97013.28;;;19.23;50.85